sensor_id;sensor_type;location;lat;lon;timestamp;P1;durP1;ratioP1;P2;durP2;ratioP2
58784;SDS011;44557;51.862;19.378;2023-02-11T00:01:36;29.20;;;15.00;;
58784;SDS011;44557;51.862;19.378;2023-02-11T00:03:38;29.10;;;14.70;;
58784;SDS011;44557;51.862;19.378;2023-02-11T00:05:40;27.40;;;15.00;;
58784;SDS011;44557;51.862;19.378;2023-02-11T00:07:41;27.50;;;14.60;;
58784;SDS011;44557;51.862;19.378;2023-02-11T00:09:43;24.90;;;13.10;;
58784;SDS011;44557;51.862;19.378;2023-02-11T00:11:44;28.70;;;13.30;;
58784;SDS011;44557;51.862;19.378;2023-02-11T00:13:46;25.90;;;13.60;;
58784;SDS011;44557;51.862;19.378;2023-02-11T00:15:48;28.20;;;12.30;;
58784;SDS011;44557;51.862;19.378;2023-02-11T00:17:50;25.30;;;13.50;;
58784;SDS011;44557;51.862;19.378;2023-02-11T00:19:52;22.60;;;12.00;;
58784;SDS011;44557;51.862;19.378;2023-02-11T00:21:55;23.10;;;12.00;;
58784;SDS011;44557;51.862;19.378;2023-02-11T00:23:57;28.30;;;12.50;;
58784;SDS011;44557;51.862;19.378;2023-02-11T00:25:59;23.30;;;12.90;;
58784;SDS011;44557;51.862;19.378;2023-02-11T00:28:01;29.40;;;12.50;;
58784;SDS011;44557;51.862;19.378;2023-02-11T00:30:03;27.50;;;13.80;;
58784;SDS011;44557;51.862;19.378;2023-02-11T00:32:06;25.20;;;12.20;;
58784;SDS011;44557;51.862;19.378;2023-02-11T00:34:09;24.60;;;13.30;;
58784;SDS011;44557;51.862;19.378;2023-02-11T00:36:15;25.50;;;12.90;;
58784;SDS011;44557;51.862;19.378;2023-02-11T00:38:18;24.80;;;13.00;;
58784;SDS011;44557;51.862;19.378;2023-02-11T00:40:20;24.80;;;12.80;;
58784;SDS011;44557;51.862;19.378;2023-02-11T00:42:22;26.10;;;13.20;;
58784;SDS011;44557;51.862;19.378;2023-02-11T00:44:24;25.10;;;12.90;;
58784;SDS011;44557;51.862;19.378;2023-02-11T00:46:25;23.70;;;12.90;;
58784;SDS011;44557;51.862;19.378;2023-02-11T00:48:27;22.90;;;13.10;;
58784;SDS011;44557;51.862;19.378;2023-02-11T00:50:29;25.20;;;13.80;;
58784;SDS011;44557;51.862;19.378;2023-02-11T00:52:31;26.40;;;13.40;;
58784;SDS011;44557;51.862;19.378;2023-02-11T00:54:33;24.40;;;14.50;;
58784;SDS011;44557;51.862;19.378;2023-02-11T00:56:35;28.40;;;13.80;;
58784;SDS011;44557;51.862;19.378;2023-02-11T00:58:36;24.10;;;13.60;;
58784;SDS011;44557;51.862;19.378;2023-02-11T01:00:38;28.60;;;14.00;;
58784;SDS011;44557;51.862;19.378;2023-02-11T01:02:39;25.30;;;12.80;;
58784;SDS011;44557;51.862;19.378;2023-02-11T01:04:41;27.20;;;14.40;;
58784;SDS011;44557;51.862;19.378;2023-02-11T01:06:43;26.20;;;13.70;;
58784;SDS011;44557;51.862;19.378;2023-02-11T01:08:45;27.50;;;15.50;;
58784;SDS011;44557;51.862;19.378;2023-02-11T01:10:56;28.50;;;15.40;;
58784;SDS011;44557;51.862;19.378;2023-02-11T01:13:00;26.30;;;14.40;;
58784;SDS011;44557;51.862;19.378;2023-02-11T01:15:03;26.60;;;14.20;;
58784;SDS011;44557;51.862;19.378;2023-02-11T01:17:05;26.90;;;15.00;;
58784;SDS011;44557;51.862;19.378;2023-02-11T01:19:07;26.00;;;14.40;;
58784;SDS011;44557;51.862;19.378;2023-02-11T01:21:09;28.50;;;14.30;;
58784;SDS011;44557;51.862;19.378;2023-02-11T01:23:11;26.40;;;14.70;;
58784;SDS011;44557;51.862;19.378;2023-02-11T01:25:12;27.00;;;15.00;;
58784;SDS011;44557;51.862;19.378;2023-02-11T01:27:14;26.90;;;14.80;;
58784;SDS011;44557;51.862;19.378;2023-02-11T01:29:16;29.90;;;15.30;;
58784;SDS011;44557;51.862;19.378;2023-02-11T01:31:17;28.30;;;14.90;;
58784;SDS011;44557;51.862;19.378;2023-02-11T01:33:19;28.40;;;14.40;;
58784;SDS011;44557;51.862;19.378;2023-02-11T01:35:22;23.50;;;13.90;;
58784;SDS011;44557;51.862;19.378;2023-02-11T01:37:24;27.00;;;15.10;;
58784;SDS011;44557;51.862;19.378;2023-02-11T01:39:26;33.00;;;15.30;;
58784;SDS011;44557;51.862;19.378;2023-02-11T01:41:27;27.10;;;15.50;;
58784;SDS011;44557;51.862;19.378;2023-02-11T01:43:36;26.90;;;15.20;;
58784;SDS011;44557;51.862;19.378;2023-02-11T01:47:46;28.90;;;15.30;;
58784;SDS011;44557;51.862;19.378;2023-02-11T01:49:49;28.00;;;14.70;;
58784;SDS011;44557;51.862;19.378;2023-02-11T01:51:57;28.20;;;15.90;;
58784;SDS011;44557;51.862;19.378;2023-02-11T01:54:03;34.40;;;16.30;;
58784;SDS011;44557;51.862;19.378;2023-02-11T01:56:26;27.90;;;15.50;;
58784;SDS011;44557;51.862;19.378;2023-02-11T01:58:46;28.90;;;15.20;;
58784;SDS011;44557;51.862;19.378;2023-02-11T02:00:50;28.30;;;15.70;;
58784;SDS011;44557;51.862;19.378;2023-02-11T02:02:56;28.40;;;16.80;;
58784;SDS011;44557;51.862;19.378;2023-02-11T02:05:01;28.50;;;16.40;;
58784;SDS011;44557;51.862;19.378;2023-02-11T02:07:11;26.70;;;15.10;;
58784;SDS011;44557;51.862;19.378;2023-02-11T02:09:27;27.50;;;16.50;;
58784;SDS011;44557;51.862;19.378;2023-02-11T02:11:35;31.10;;;17.00;;
58784;SDS011;44557;51.862;19.378;2023-02-11T02:13:37;27.10;;;16.30;;
58784;SDS011;44557;51.862;19.378;2023-02-11T02:15:40;29.00;;;17.90;;
58784;SDS011;44557;51.862;19.378;2023-02-11T02:17:53;31.70;;;16.60;;
58784;SDS011;44557;51.862;19.378;2023-02-11T02:20:25;30.00;;;17.50;;
58784;SDS011;44557;51.862;19.378;2023-02-11T02:30:22;34.50;;;19.30;;
58784;SDS011;44557;51.862;19.378;2023-02-11T02:33:01;30.00;;;18.40;;
58784;SDS011;44557;51.862;19.378;2023-02-11T02:39:56;31.10;;;17.60;;
58784;SDS011;44557;51.862;19.378;2023-02-11T02:42:03;31.50;;;18.80;;
58784;SDS011;44557;51.862;19.378;2023-02-11T02:44:06;31.80;;;19.10;;
58784;SDS011;44557;51.862;19.378;2023-02-11T02:46:19;32.60;;;18.90;;
58784;SDS011;44557;51.862;19.378;2023-02-11T02:48:24;31.80;;;19.10;;
58784;SDS011;44557;51.862;19.378;2023-02-11T02:50:34;31.50;;;18.50;;
58784;SDS011;44557;51.862;19.378;2023-02-11T03:02:26;30.60;;;19.70;;
58784;SDS011;44557;51.862;19.378;2023-02-11T03:04:36;31.40;;;18.90;;
58784;SDS011;44557;51.862;19.378;2023-02-11T03:06:54;29.80;;;17.90;;
58784;SDS011;44557;51.862;19.378;2023-02-11T03:09:08;32.40;;;18.90;;
58784;SDS011;44557;51.862;19.378;2023-02-11T03:11:17;32.50;;;20.10;;
58784;SDS011;44557;51.862;19.378;2023-02-11T03:13:21;32.10;;;18.80;;
58784;SDS011;44557;51.862;19.378;2023-02-11T03:15:28;30.20;;;18.10;;
58784;SDS011;44557;51.862;19.378;2023-02-11T03:17:32;31.50;;;19.50;;
58784;SDS011;44557;51.862;19.378;2023-02-11T03:19:36;30.50;;;18.50;;
58784;SDS011;44557;51.862;19.378;2023-02-11T03:21:41;29.70;;;18.90;;
58784;SDS011;44557;51.862;19.378;2023-02-11T03:23:52;31.70;;;19.00;;
58784;SDS011;44557;51.862;19.378;2023-02-11T03:28:28;31.90;;;18.90;;
58784;SDS011;44557;51.862;19.378;2023-02-11T03:31:33;27.30;;;17.30;;
58784;SDS011;44557;51.862;19.378;2023-02-11T03:33:17;29.10;;;17.60;;
58784;SDS011;44557;51.862;19.378;2023-02-11T03:35:27;30.70;;;18.50;;
58784;SDS011;44557;51.862;19.378;2023-02-11T03:40:12;26.50;;;16.90;;
58784;SDS011;44557;51.862;19.378;2023-02-11T03:42:17;31.90;;;19.20;;
58784;SDS011;44557;51.862;19.378;2023-02-11T03:44:19;29.30;;;18.50;;
58784;SDS011;44557;51.862;19.378;2023-02-11T03:46:24;29.40;;;18.60;;
58784;SDS011;44557;51.862;19.378;2023-02-11T03:48:38;28.20;;;18.20;;
58784;SDS011;44557;51.862;19.378;2023-02-11T03:50:43;28.10;;;17.70;;
58784;SDS011;44557;51.862;19.378;2023-02-11T03:52:46;29.20;;;18.10;;
58784;SDS011;44557;51.862;19.378;2023-02-11T03:54:50;31.80;;;19.20;;
58784;SDS011;44557;51.862;19.378;2023-02-11T03:56:57;28.80;;;17.60;;
58784;SDS011;44557;51.862;19.378;2023-02-11T03:59:00;30.10;;;17.70;;
58784;SDS011;44557;51.862;19.378;2023-02-11T04:01:02;31.90;;;18.50;;
58784;SDS011;44557;51.862;19.378;2023-02-11T04:03:05;29.30;;;17.00;;
58784;SDS011;44557;51.862;19.378;2023-02-11T04:05:08;28.30;;;17.70;;
58784;SDS011;44557;51.862;19.378;2023-02-11T04:07:11;28.20;;;17.20;;
58784;SDS011;44557;51.862;19.378;2023-02-11T04:09:13;32.30;;;17.60;;
58784;SDS011;44557;51.862;19.378;2023-02-11T04:11:15;32.40;;;17.50;;
58784;SDS011;44557;51.862;19.378;2023-02-11T04:13:16;29.00;;;18.10;;
58784;SDS011;44557;51.862;19.378;2023-02-11T04:15:18;31.60;;;18.20;;
58784;SDS011;44557;51.862;19.378;2023-02-11T04:17:20;28.10;;;16.90;;
58784;SDS011;44557;51.862;19.378;2023-02-11T04:19:21;30.40;;;17.40;;
58784;SDS011;44557;51.862;19.378;2023-02-11T04:21:23;32.50;;;18.00;;
58784;SDS011;44557;51.862;19.378;2023-02-11T04:23:25;30.30;;;17.90;;
58784;SDS011;44557;51.862;19.378;2023-02-11T04:25:26;30.30;;;17.60;;
58784;SDS011;44557;51.862;19.378;2023-02-11T04:27:28;30.90;;;17.70;;
58784;SDS011;44557;51.862;19.378;2023-02-11T04:29:30;26.60;;;15.70;;
58784;SDS011;44557;51.862;19.378;2023-02-11T04:31:32;30.40;;;18.10;;
58784;SDS011;44557;51.862;19.378;2023-02-11T04:33:33;31.30;;;17.80;;
58784;SDS011;44557;51.862;19.378;2023-02-11T04:35:35;30.60;;;17.90;;
58784;SDS011;44557;51.862;19.378;2023-02-11T04:37:36;28.70;;;17.90;;
58784;SDS011;44557;51.862;19.378;2023-02-11T04:39:38;30.30;;;17.30;;
58784;SDS011;44557;51.862;19.378;2023-02-11T04:41:39;33.00;;;19.00;;
58784;SDS011;44557;51.862;19.378;2023-02-11T04:43:41;30.60;;;17.80;;
58784;SDS011;44557;51.862;19.378;2023-02-11T04:45:42;31.70;;;19.50;;
58784;SDS011;44557;51.862;19.378;2023-02-11T04:47:44;30.30;;;18.00;;
58784;SDS011;44557;51.862;19.378;2023-02-11T04:49:45;30.70;;;17.90;;
58784;SDS011;44557;51.862;19.378;2023-02-11T04:51:47;31.50;;;19.90;;
58784;SDS011;44557;51.862;19.378;2023-02-11T04:53:48;31.90;;;19.00;;
58784;SDS011;44557;51.862;19.378;2023-02-11T04:55:50;29.10;;;18.00;;
58784;SDS011;44557;51.862;19.378;2023-02-11T04:57:51;30.40;;;17.00;;
58784;SDS011;44557;51.862;19.378;2023-02-11T04:59:53;33.10;;;18.40;;
58784;SDS011;44557;51.862;19.378;2023-02-11T05:01:54;32.00;;;18.70;;
58784;SDS011;44557;51.862;19.378;2023-02-11T05:03:56;31.20;;;18.90;;
58784;SDS011;44557;51.862;19.378;2023-02-11T05:05:58;29.70;;;18.80;;
58784;SDS011;44557;51.862;19.378;2023-02-11T05:07:59;30.80;;;19.20;;
58784;SDS011;44557;51.862;19.378;2023-02-11T05:10:01;33.70;;;18.30;;
58784;SDS011;44557;51.862;19.378;2023-02-11T05:12:02;33.60;;;19.50;;
58784;SDS011;44557;51.862;19.378;2023-02-11T05:14:04;31.20;;;19.60;;
58784;SDS011;44557;51.862;19.378;2023-02-11T05:16:06;32.20;;;19.30;;
58784;SDS011;44557;51.862;19.378;2023-02-11T05:18:08;36.50;;;19.40;;
58784;SDS011;44557;51.862;19.378;2023-02-11T05:20:09;31.00;;;19.70;;
58784;SDS011;44557;51.862;19.378;2023-02-11T05:22:11;33.80;;;21.30;;
58784;SDS011;44557;51.862;19.378;2023-02-11T05:24:13;35.50;;;21.50;;
58784;SDS011;44557;51.862;19.378;2023-02-11T05:26:14;31.30;;;19.80;;
58784;SDS011;44557;51.862;19.378;2023-02-11T05:28:16;35.30;;;21.50;;
58784;SDS011;44557;51.862;19.378;2023-02-11T05:30:17;35.60;;;20.20;;
58784;SDS011;44557;51.862;19.378;2023-02-11T05:32:19;34.10;;;21.70;;
58784;SDS011;44557;51.862;19.378;2023-02-11T05:34:21;34.90;;;20.80;;
58784;SDS011;44557;51.862;19.378;2023-02-11T05:36:22;36.10;;;21.40;;
58784;SDS011;44557;51.862;19.378;2023-02-11T05:38:24;33.90;;;20.60;;
58784;SDS011;44557;51.862;19.378;2023-02-11T05:40:25;33.20;;;21.00;;
58784;SDS011;44557;51.862;19.378;2023-02-11T05:42:27;33.20;;;20.30;;
58784;SDS011;44557;51.862;19.378;2023-02-11T05:44:28;34.10;;;21.40;;
58784;SDS011;44557;51.862;19.378;2023-02-11T05:46:30;32.80;;;20.80;;
58784;SDS011;44557;51.862;19.378;2023-02-11T05:48:31;34.30;;;20.80;;
58784;SDS011;44557;51.862;19.378;2023-02-11T05:50:33;32.10;;;21.50;;
58784;SDS011;44557;51.862;19.378;2023-02-11T05:52:35;28.80;;;18.40;;
58784;SDS011;44557;51.862;19.378;2023-02-11T05:54:36;35.20;;;22.60;;
58784;SDS011;44557;51.862;19.378;2023-02-11T05:56:38;35.70;;;21.80;;
58784;SDS011;44557;51.862;19.378;2023-02-11T05:58:39;35.50;;;21.90;;
58784;SDS011;44557;51.862;19.378;2023-02-11T06:00:41;37.40;;;22.50;;
58784;SDS011;44557;51.862;19.378;2023-02-11T06:02:43;32.80;;;21.00;;
58784;SDS011;44557;51.862;19.378;2023-02-11T06:04:44;33.50;;;21.00;;
58784;SDS011;44557;51.862;19.378;2023-02-11T06:06:46;35.70;;;21.40;;
58784;SDS011;44557;51.862;19.378;2023-02-11T06:08:48;32.40;;;21.60;;
58784;SDS011;44557;51.862;19.378;2023-02-11T06:10:49;35.90;;;22.90;;
58784;SDS011;44557;51.862;19.378;2023-02-11T06:12:51;35.10;;;23.00;;
58784;SDS011;44557;51.862;19.378;2023-02-11T06:14:52;30.80;;;19.00;;
58784;SDS011;44557;51.862;19.378;2023-02-11T06:16:54;34.30;;;20.60;;
58784;SDS011;44557;51.862;19.378;2023-02-11T06:18:55;32.80;;;18.50;;
58784;SDS011;44557;51.862;19.378;2023-02-11T06:20:57;32.20;;;20.90;;
58784;SDS011;44557;51.862;19.378;2023-02-11T06:22:58;30.60;;;20.30;;
58784;SDS011;44557;51.862;19.378;2023-02-11T06:25:00;36.50;;;22.20;;
58784;SDS011;44557;51.862;19.378;2023-02-11T06:27:02;38.00;;;21.90;;
58784;SDS011;44557;51.862;19.378;2023-02-11T06:29:05;32.30;;;20.10;;
58784;SDS011;44557;51.862;19.378;2023-02-11T06:31:06;32.30;;;20.40;;
58784;SDS011;44557;51.862;19.378;2023-02-11T06:33:08;32.70;;;20.30;;
58784;SDS011;44557;51.862;19.378;2023-02-11T06:35:09;34.60;;;21.50;;
58784;SDS011;44557;51.862;19.378;2023-02-11T06:37:11;37.80;;;21.60;;
58784;SDS011;44557;51.862;19.378;2023-02-11T06:39:13;33.10;;;20.70;;
58784;SDS011;44557;51.862;19.378;2023-02-11T06:41:15;37.10;;;21.20;;
58784;SDS011;44557;51.862;19.378;2023-02-11T06:43:20;34.70;;;21.30;;
58784;SDS011;44557;51.862;19.378;2023-02-11T06:45:21;38.40;;;23.50;;
58784;SDS011;44557;51.862;19.378;2023-02-11T06:47:23;33.00;;;20.70;;
58784;SDS011;44557;51.862;19.378;2023-02-11T06:49:24;36.80;;;21.20;;
58784;SDS011;44557;51.862;19.378;2023-02-11T06:51:26;34.80;;;21.20;;
58784;SDS011;44557;51.862;19.378;2023-02-11T06:53:28;37.00;;;20.80;;
58784;SDS011;44557;51.862;19.378;2023-02-11T06:55:30;39.10;;;24.40;;
58784;SDS011;44557;51.862;19.378;2023-02-11T06:57:31;37.50;;;22.90;;
58784;SDS011;44557;51.862;19.378;2023-02-11T06:59:33;34.10;;;22.60;;
58784;SDS011;44557;51.862;19.378;2023-02-11T07:01:34;35.10;;;21.80;;
58784;SDS011;44557;51.862;19.378;2023-02-11T07:03:37;33.60;;;21.50;;
58784;SDS011;44557;51.862;19.378;2023-02-11T07:05:43;36.40;;;22.20;;
58784;SDS011;44557;51.862;19.378;2023-02-11T07:07:44;36.80;;;22.10;;
58784;SDS011;44557;51.862;19.378;2023-02-11T07:09:46;38.20;;;23.30;;
58784;SDS011;44557;51.862;19.378;2023-02-11T07:11:47;37.90;;;23.80;;
58784;SDS011;44557;51.862;19.378;2023-02-11T07:13:50;35.00;;;22.30;;
58784;SDS011;44557;51.862;19.378;2023-02-11T07:15:52;38.30;;;23.00;;
58784;SDS011;44557;51.862;19.378;2023-02-11T07:17:54;39.00;;;24.10;;
58784;SDS011;44557;51.862;19.378;2023-02-11T07:19:55;37.70;;;22.70;;
58784;SDS011;44557;51.862;19.378;2023-02-11T07:21:58;37.00;;;22.70;;
58784;SDS011;44557;51.862;19.378;2023-02-11T07:24:00;38.40;;;22.20;;
58784;SDS011;44557;51.862;19.378;2023-02-11T07:26:09;37.60;;;23.40;;
58784;SDS011;44557;51.862;19.378;2023-02-11T07:28:12;37.30;;;23.60;;
58784;SDS011;44557;51.862;19.378;2023-02-11T07:30:14;36.90;;;22.30;;
58784;SDS011;44557;51.862;19.378;2023-02-11T07:32:15;36.50;;;23.10;;
58784;SDS011;44557;51.862;19.378;2023-02-11T07:34:17;36.90;;;23.60;;
58784;SDS011;44557;51.862;19.378;2023-02-11T07:36:19;36.80;;;23.00;;
58784;SDS011;44557;51.862;19.378;2023-02-11T07:38:21;35.90;;;22.50;;
58784;SDS011;44557;51.862;19.378;2023-02-11T07:40:22;37.20;;;22.60;;
58784;SDS011;44557;51.862;19.378;2023-02-11T07:42:24;36.60;;;22.70;;
58784;SDS011;44557;51.862;19.378;2023-02-11T07:44:25;33.10;;;22.00;;
58784;SDS011;44557;51.862;19.378;2023-02-11T07:46:27;39.30;;;23.10;;
58784;SDS011;44557;51.862;19.378;2023-02-11T07:48:28;38.70;;;23.40;;
58784;SDS011;44557;51.862;19.378;2023-02-11T07:50:30;37.90;;;24.10;;
58784;SDS011;44557;51.862;19.378;2023-02-11T07:52:31;36.60;;;22.70;;
58784;SDS011;44557;51.862;19.378;2023-02-11T07:54:33;37.20;;;22.00;;
58784;SDS011;44557;51.862;19.378;2023-02-11T07:56:34;34.10;;;21.70;;
58784;SDS011;44557;51.862;19.378;2023-02-11T07:58:36;35.00;;;19.90;;
58784;SDS011;44557;51.862;19.378;2023-02-11T08:00:38;41.10;;;22.80;;
58784;SDS011;44557;51.862;19.378;2023-02-11T08:02:39;38.40;;;22.70;;
58784;SDS011;44557;51.862;19.378;2023-02-11T08:04:41;38.60;;;22.70;;
58784;SDS011;44557;51.862;19.378;2023-02-11T08:06:43;37.70;;;22.80;;
58784;SDS011;44557;51.862;19.378;2023-02-11T08:08:45;36.50;;;22.20;;
58784;SDS011;44557;51.862;19.378;2023-02-11T08:10:47;39.10;;;23.10;;
58784;SDS011;44557;51.862;19.378;2023-02-11T08:12:48;38.70;;;23.10;;
58784;SDS011;44557;51.862;19.378;2023-02-11T08:14:50;38.00;;;22.40;;
58784;SDS011;44557;51.862;19.378;2023-02-11T08:16:51;42.60;;;23.40;;
58784;SDS011;44557;51.862;19.378;2023-02-11T08:18:54;40.00;;;23.20;;
58784;SDS011;44557;51.862;19.378;2023-02-11T08:21:04;40.50;;;23.60;;
58784;SDS011;44557;51.862;19.378;2023-02-11T08:23:07;38.40;;;22.80;;
58784;SDS011;44557;51.862;19.378;2023-02-11T08:25:08;35.70;;;20.90;;
58784;SDS011;44557;51.862;19.378;2023-02-11T08:27:10;39.90;;;21.80;;
58784;SDS011;44557;51.862;19.378;2023-02-11T08:29:12;37.20;;;21.90;;
58784;SDS011;44557;51.862;19.378;2023-02-11T08:31:22;36.30;;;22.10;;
58784;SDS011;44557;51.862;19.378;2023-02-11T08:33:25;34.10;;;21.20;;
58784;SDS011;44557;51.862;19.378;2023-02-11T08:35:27;36.40;;;22.40;;
58784;SDS011;44557;51.862;19.378;2023-02-11T08:37:29;37.40;;;21.50;;
58784;SDS011;44557;51.862;19.378;2023-02-11T08:39:30;35.80;;;21.10;;
58784;SDS011;44557;51.862;19.378;2023-02-11T08:41:32;34.50;;;21.50;;
58784;SDS011;44557;51.862;19.378;2023-02-11T08:43:35;35.60;;;21.20;;
58784;SDS011;44557;51.862;19.378;2023-02-11T08:45:37;35.70;;;22.00;;
58784;SDS011;44557;51.862;19.378;2023-02-11T08:47:39;33.40;;;21.00;;
58784;SDS011;44557;51.862;19.378;2023-02-11T08:49:40;34.90;;;21.80;;
58784;SDS011;44557;51.862;19.378;2023-02-11T08:51:43;34.20;;;21.00;;
58784;SDS011;44557;51.862;19.378;2023-02-11T08:53:44;34.60;;;22.20;;
58784;SDS011;44557;51.862;19.378;2023-02-11T08:55:51;37.00;;;22.50;;
58784;SDS011;44557;51.862;19.378;2023-02-11T08:57:53;31.00;;;20.40;;
58784;SDS011;44557;51.862;19.378;2023-02-11T08:59:55;35.60;;;22.50;;
58784;SDS011;44557;51.862;19.378;2023-02-11T09:01:59;35.40;;;21.30;;
58784;SDS011;44557;51.862;19.378;2023-02-11T09:04:00;36.90;;;22.50;;
58784;SDS011;44557;51.862;19.378;2023-02-11T09:06:03;35.60;;;22.10;;
58784;SDS011;44557;51.862;19.378;2023-02-11T09:08:06;34.70;;;22.50;;
58784;SDS011;44557;51.862;19.378;2023-02-11T09:10:08;37.30;;;22.20;;
58784;SDS011;44557;51.862;19.378;2023-02-11T09:12:10;36.50;;;21.90;;
58784;SDS011;44557;51.862;19.378;2023-02-11T09:14:18;36.60;;;22.50;;
58784;SDS011;44557;51.862;19.378;2023-02-11T09:16:23;35.40;;;22.00;;
58784;SDS011;44557;51.862;19.378;2023-02-11T09:18:34;34.50;;;22.00;;
58784;SDS011;44557;51.862;19.378;2023-02-11T09:20:35;35.00;;;21.50;;
58784;SDS011;44557;51.862;19.378;2023-02-11T09:22:37;36.50;;;21.20;;
58784;SDS011;44557;51.862;19.378;2023-02-11T09:24:39;34.30;;;21.40;;
58784;SDS011;44557;51.862;19.378;2023-02-11T09:26:40;35.00;;;22.70;;
58784;SDS011;44557;51.862;19.378;2023-02-11T09:28:43;35.60;;;22.10;;
58784;SDS011;44557;51.862;19.378;2023-02-11T09:30:45;36.00;;;21.20;;
58784;SDS011;44557;51.862;19.378;2023-02-11T09:32:46;36.60;;;22.20;;
58784;SDS011;44557;51.862;19.378;2023-02-11T09:34:48;36.30;;;22.90;;
58784;SDS011;44557;51.862;19.378;2023-02-11T09:36:50;37.50;;;22.20;;
58784;SDS011;44557;51.862;19.378;2023-02-11T09:38:53;36.00;;;21.60;;
58784;SDS011;44557;51.862;19.378;2023-02-11T09:40:55;34.80;;;22.30;;
58784;SDS011;44557;51.862;19.378;2023-02-11T09:43:04;37.30;;;23.00;;
58784;SDS011;44557;51.862;19.378;2023-02-11T09:45:16;35.70;;;21.20;;
58784;SDS011;44557;51.862;19.378;2023-02-11T09:47:28;38.30;;;23.20;;
58784;SDS011;44557;51.862;19.378;2023-02-11T09:49:34;38.00;;;23.00;;
58784;SDS011;44557;51.862;19.378;2023-02-11T09:51:42;38.00;;;23.20;;
58784;SDS011;44557;51.862;19.378;2023-02-11T09:53:48;39.60;;;23.90;;
58784;SDS011;44557;51.862;19.378;2023-02-11T09:55:58;39.60;;;23.10;;
58784;SDS011;44557;51.862;19.378;2023-02-11T09:58:02;40.80;;;24.30;;
58784;SDS011;44557;51.862;19.378;2023-02-11T10:00:20;39.50;;;24.50;;
58784;SDS011;44557;51.862;19.378;2023-02-11T10:07:17;37.20;;;23.30;;
58784;SDS011;44557;51.862;19.378;2023-02-11T10:18:37;38.70;;;24.20;;
58784;SDS011;44557;51.862;19.378;2023-02-11T10:22:59;39.00;;;24.90;;
58784;SDS011;44557;51.862;19.378;2023-02-11T10:25:07;32.90;;;21.50;;
58784;SDS011;44557;51.862;19.378;2023-02-11T10:27:21;41.00;;;23.40;;
58784;SDS011;44557;51.862;19.378;2023-02-11T10:29:37;35.70;;;22.30;;
58784;SDS011;44557;51.862;19.378;2023-02-11T10:31:44;39.10;;;23.40;;
58784;SDS011;44557;51.862;19.378;2023-02-11T10:33:55;40.00;;;24.00;;
58784;SDS011;44557;51.862;19.378;2023-02-11T10:36:05;41.20;;;25.30;;
58784;SDS011;44557;51.862;19.378;2023-02-11T10:38:07;39.00;;;24.00;;
58784;SDS011;44557;51.862;19.378;2023-02-11T10:40:21;39.40;;;23.60;;
58784;SDS011;44557;51.862;19.378;2023-02-11T10:42:25;36.90;;;23.10;;
58784;SDS011;44557;51.862;19.378;2023-02-11T10:44:29;37.20;;;22.20;;
58784;SDS011;44557;51.862;19.378;2023-02-11T10:46:35;39.50;;;25.10;;
58784;SDS011;44557;51.862;19.378;2023-02-11T10:48:41;39.70;;;23.50;;
58784;SDS011;44557;51.862;19.378;2023-02-11T10:50:45;39.20;;;24.30;;
58784;SDS011;44557;51.862;19.378;2023-02-11T10:52:46;40.90;;;23.60;;
58784;SDS011;44557;51.862;19.378;2023-02-11T10:57:16;40.20;;;23.80;;
58784;SDS011;44557;51.862;19.378;2023-02-11T11:01:44;39.80;;;23.20;;
58784;SDS011;44557;51.862;19.378;2023-02-11T11:03:51;44.50;;;25.70;;
58784;SDS011;44557;51.862;19.378;2023-02-11T11:08:03;42.20;;;25.10;;
58784;SDS011;44557;51.862;19.378;2023-02-11T11:10:24;42.20;;;24.40;;
58784;SDS011;44557;51.862;19.378;2023-02-11T11:12:33;43.90;;;25.80;;
58784;SDS011;44557;51.862;19.378;2023-02-11T11:14:52;43.10;;;25.70;;
58784;SDS011;44557;51.862;19.378;2023-02-11T11:16:55;45.30;;;26.50;;
58784;SDS011;44557;51.862;19.378;2023-02-11T11:21:25;44.80;;;26.60;;
58784;SDS011;44557;51.862;19.378;2023-02-11T11:23:34;42.00;;;24.40;;
58784;SDS011;44557;51.862;19.378;2023-02-11T11:25:38;42.60;;;25.20;;
58784;SDS011;44557;51.862;19.378;2023-02-11T11:27:46;43.40;;;26.40;;
58784;SDS011;44557;51.862;19.378;2023-02-11T11:29:53;46.30;;;26.40;;
58784;SDS011;44557;51.862;19.378;2023-02-11T11:31:57;48.40;;;28.70;;
58784;SDS011;44557;51.862;19.378;2023-02-11T11:34:16;43.60;;;26.80;;
58784;SDS011;44557;51.862;19.378;2023-02-11T11:36:22;43.50;;;26.50;;
58784;SDS011;44557;51.862;19.378;2023-02-11T11:38:33;48.40;;;27.80;;
58784;SDS011;44557;51.862;19.378;2023-02-11T11:40:37;44.90;;;27.80;;
58784;SDS011;44557;51.862;19.378;2023-02-11T11:42:39;43.80;;;25.00;;
58784;SDS011;44557;51.862;19.378;2023-02-11T11:44:41;44.80;;;26.20;;
58784;SDS011;44557;51.862;19.378;2023-02-11T11:51:25;48.30;;;27.30;;
58784;SDS011;44557;51.862;19.378;2023-02-11T11:58:05;49.00;;;27.50;;
58784;SDS011;44557;51.862;19.378;2023-02-11T12:00:14;42.90;;;26.70;;
58784;SDS011;44557;51.862;19.378;2023-02-11T12:02:39;46.30;;;27.00;;
58784;SDS011;44557;51.862;19.378;2023-02-11T12:23:37;50.80;;;28.70;;
58784;SDS011;44557;51.862;19.378;2023-02-11T12:28:05;43.80;;;26.40;;
58784;SDS011;44557;51.862;19.378;2023-02-11T12:39:43;47.20;;;30.10;;
58784;SDS011;44557;51.862;19.378;2023-02-11T12:44:34;48.10;;;29.30;;
58784;SDS011;44557;51.862;19.378;2023-02-11T12:47:05;48.70;;;29.70;;
58784;SDS011;44557;51.862;19.378;2023-02-11T12:49:32;51.10;;;30.50;;
58784;SDS011;44557;51.862;19.378;2023-02-11T12:51:51;49.20;;;30.60;;
58784;SDS011;44557;51.862;19.378;2023-02-11T12:54:18;48.00;;;29.50;;
58784;SDS011;44557;51.862;19.378;2023-02-11T12:56:27;50.80;;;31.70;;
58784;SDS011;44557;51.862;19.378;2023-02-11T12:58:36;50.30;;;30.50;;
58784;SDS011;44557;51.862;19.378;2023-02-11T13:00:44;49.30;;;29.60;;
58784;SDS011;44557;51.862;19.378;2023-02-11T13:07:38;53.70;;;29.30;;
58784;SDS011;44557;51.862;19.378;2023-02-11T13:09:55;50.50;;;28.50;;
58784;SDS011;44557;51.862;19.378;2023-02-11T13:11:56;47.90;;;30.20;;
58784;SDS011;44557;51.862;19.378;2023-02-11T13:16:38;49.60;;;29.20;;
58784;SDS011;44557;51.862;19.378;2023-02-11T13:18:51;46.30;;;28.40;;
58784;SDS011;44557;51.862;19.378;2023-02-11T13:23:20;50.10;;;29.60;;
58784;SDS011;44557;51.862;19.378;2023-02-11T13:25:42;45.10;;;28.60;;
58784;SDS011;44557;51.862;19.378;2023-02-11T13:34:55;45.20;;;28.00;;
58784;SDS011;44557;51.862;19.378;2023-02-11T13:36:57;45.90;;;28.40;;
58784;SDS011;44557;51.862;19.378;2023-02-11T13:39:00;44.90;;;27.70;;
58784;SDS011;44557;51.862;19.378;2023-02-11T13:43:25;47.90;;;28.20;;
58784;SDS011;44557;51.862;19.378;2023-02-11T13:45:36;48.10;;;28.60;;
58784;SDS011;44557;51.862;19.378;2023-02-11T13:47:43;47.90;;;30.20;;
58784;SDS011;44557;51.862;19.378;2023-02-11T13:49:48;44.90;;;28.60;;
58784;SDS011;44557;51.862;19.378;2023-02-11T13:51:53;47.20;;;29.90;;
58784;SDS011;44557;51.862;19.378;2023-02-11T13:53:57;47.20;;;28.30;;
58784;SDS011;44557;51.862;19.378;2023-02-11T13:56:06;46.10;;;27.50;;